Terminal Aerodrome Forecast
Issued by NWS

Home | Current Version | Previous Version | Text Only | Print | Product List | Glossary On
Versions: 1 2 3 4 5 6 7 8 9 10 11 12 13 14 15 16 17 18 19 20 21 22 23 24
000
FTUS41 KPBZ 052320
TAFMGW
TAF
KMGW 052320Z 0600/0624 01004KT P6SM VCSH BKN045
     FM061100 14004KT 6SM -SHRA BKN030
     FM061300 18005KT 5SM -SHRA VCTS BKN020CB OVC040=

USA.gov is the U.S. government's official web portal to all federal, state and local government web resources and services.